KMLS/MLS METAR and TAF weather

Enter ICAO airport designator
Station Type Date Time Source
KMLS METAR 2021/05/14 12:53 UTC NOAA

KMLS 141253Z AUTO 00000KT 10SM CLR 06/04 A3009 RMK AO2 SLP191 T00610039


Station Type Date Time Source
KMLS Decoded METAR 2021/05/14 12:53 UTC NOAA

MILES CITY WILEY FIELD, MT, United States (KMLS) 46-26N 105-53W 801M
May 14, 2021 - 08:53 AM EDT / 2021.05.14 1253 UTC
Wind: Calm:0
Visibility: 10 mile(s):0
Sky conditions: clear
Temperature: 43.0 F (6.1 C)
Dew Point: 39.0 F (3.9 C)
Relative Humidity: 85%
Pressure (altimeter): 30.09 in. Hg (1018 hPa)
ob: KMLS 141253Z AUTO 00000KT 10SM CLR 06/04 A3009 RMK AO2 SLP191 T00610039
cycle: 13

Station Type Date Time Source
KMLS TAF 2021/05/14 12:22 UTC NOAA

TAF KMLS 141120Z 1412/1512 31005KT P6SM SCT250
FM141700 02005KT P6SM VCTS SCT070CB
FM150200 01005KT P6SM FEW070 SCT200

Example: see airport list